Fort Chipewyan, Canada
Current Conditions -  °F | °C
As of 9:00 AM on Thursday 29 Jan 2015 (Local Time) from CYPY Reporting Station
Overcast Overcast  
Wind Chill: -36°   Ceiling: 15000
Heat Index: -28°   Visibility: 9mi
Dew Point: -30°   Wind: 6mph
Humidity: 84%   Direction: 100°E
Pressure: 30.44"   Gusts: NA
Location:  58.71°N, 111.15°W
Report Text: CYPY 291600Z AUTO 10005KT 9SM OVC150 M28/M30 A3044 RMK SLP346
Loading
Personal Weather Stations






























Interactive Weather Map New forecast layout! Learn more

10-Day Weather Forecast

Advertisements
Track Severe Weather on mobile